Time;durP1;ratioP1;P1;durP2;ratioP2;P2;SDS_P1;SDS_P2;PMS_P1;PMS_P2;Temp;Humidity;BMP_temperature;BMP_pressure;BME280_temperature;BME280_humidity;BME280_pressure;Samples;Min_cycle;Max_cycle;Signal;HPM_P1;HPM_P2
2023/04/16 00:01:01;;;;;;;0.68;0.68;;;;;;;5.57;100.00;98927.44;4471946;32;34974;-84
2023/04/16 00:03:30;;;;;;;0.95;0.95;;;;;;;5.44;100.00;98924.81;4471382;32;34743;-82
2023/04/16 00:05:58;;;;;;;1.23;1.15;;;;;;;5.68;100.00;98917.97;4485935;32;34263;-84
2023/04/16 00:08:26;;;;;;;0.60;0.60;;;;;;;5.46;100.00;98923.09;4486122;32;33824;-84
2023/04/16 00:10:54;;;;;;;0.70;0.70;;;;;;;5.41;100.00;98923.94;4471962;32;34751;-84
2023/04/16 00:13:22;;;;;;;0.90;0.90;;;;;;;5.21;100.00;98918.72;4485916;32;34093;-84
2023/04/16 00:15:50;;;;;;;1.95;1.02;;;;;;;5.01;100.00;98921.19;4485928;32;33413;-84
2023/04/16 00:18:20;;;;;;;1.08;1.08;;;;;;;5.07;100.00;98927.25;4471861;32;34703;-84
2023/04/16 00:20:48;;;;;;;0.90;0.90;;;;;;;5.30;100.00;98923.91;4485816;32;34918;-84
2023/04/16 00:23:16;;;;;;;0.90;0.90;;;;;;;5.09;100.00;98919.53;4485714;32;34314;-80
2023/04/16 00:25:44;;;;;;;0.50;0.50;;;;;;;5.34;100.00;98915.31;4471628;32;34398;-82
2023/04/16 00:28:12;;;;;;;1.25;1.25;;;;;;;5.21;100.00;98916.13;4485859;32;34116;-81
2023/04/16 00:30:40;;;;;;;0.93;0.93;;;;;;;5.15;100.00;98918.69;4485734;32;35762;-84
2023/04/16 00:33:08;;;;;;;0.77;0.77;;;;;;;5.49;100.00;98919.69;4471487;32;33086;-81
2023/04/16 00:35:36;;;;;;;0.50;0.50;;;;;;;5.31;100.00;98917.88;4485738;32;34383;-80
2023/04/16 00:38:04;;;;;;;0.50;0.50;;;;;;;5.36;100.00;98925.66;4471684;32;34358;-83
2023/04/16 00:40:33;;;;;;;0.55;0.55;;;;;;;4.97;100.00;98922.91;4485669;32;35448;-84
2023/04/16 00:43:01;;;;;;;1.30;1.00;;;;;;;4.73;100.00;98921.91;4485918;32;34045;-84
2023/04/16 00:45:29;;;;;;;0.57;0.57;;;;;;;5.02;100.00;98928.94;4485573;32;33289;-82
2023/04/16 00:47:57;;;;;;;0.62;0.62;;;;;;;4.77;100.00;98927.09;4485720;32;34001;-84
2023/04/16 00:50:27;;;;;;;1.33;1.33;;;;;;;4.84;100.00;98923.69;4485464;32;34942;-84
2023/04/16 00:52:55;;;;;;;0.50;0.50;;;;;;;5.16;100.00;98921.28;4485499;32;34439;-81
2023/04/16 00:55:24;;;;;;;0.50;0.50;;;;;;;5.16;100.00;98920.41;4485534;32;34292;-84
2023/04/16 00:57:52;;;;;;;0.70;0.70;;;;;;;5.00;100.00;98912.59;4485392;32;34738;-84
2023/04/16 01:00:20;;;;;;;0.50;0.50;;;;;;;5.10;100.00;98924.69;4485380;32;35126;-84
2023/04/16 01:02:49;;;;;;;0.90;0.90;;;;;;;5.21;100.00;98931.63;4485337;32;34446;-85
2023/04/16 01:05:19;;;;;;;0.88;0.88;;;;;;;4.92;100.00;98932.31;4485540;32;33786;-84
2023/04/16 01:07:47;;;;;;;1.58;1.45;;;;;;;4.94;100.00;98936.66;4471396;32;33525;-84
2023/04/16 01:10:15;;;;;;;0.60;0.60;;;;;;;4.99;100.00;98928.91;4485189;32;34748;-83
2023/04/16 01:12:43;;;;;;;1.05;1.05;;;;;;;5.25;100.00;98935.94;4485227;32;34120;-84
2023/04/16 01:15:11;;;;;;;1.08;1.08;;;;;;;5.85;96.19;98944.72;4471609;32;33139;-83
2023/04/16 01:17:40;;;;;;;0.62;0.62;;;;;;;5.35;98.51;98937.69;4472809;32;32449;-83
2023/04/16 01:20:09;;;;;;;1.45;1.02;;;;;;;5.01;100.00;98940.13;4487120;32;34719;-83
2023/04/16 01:22:37;;;;;;;3.35;2.45;;;;;;;5.74;98.68;98938.69;4487202;32;34602;-83
2023/04/16 01:25:05;;;;;;;0.60;0.60;;;;;;;5.45;100.00;98939.47;4487102;32;34417;-84
2023/04/16 01:27:34;;;;;;;0.75;0.75;;;;;;;5.59;100.00;98938.62;4487188;32;33835;-80
2023/04/16 01:30:02;;;;;;;1.70;1.60;;;;;;;5.83;100.00;98941.28;4487076;32;34619;-81
2023/04/16 01:32:32;;;;;;;0.50;0.50;;;;;;;5.79;99.64;98936.97;4473485;32;34495;-81
2023/04/16 01:35:00;;;;;;;0.70;0.70;;;;;;;5.57;99.00;98933.47;4473185;32;33890;-84
2023/04/16 01:37:29;;;;;;;0.50;0.50;;;;;;;5.77;97.49;98940.38;4487057;32;33966;-84
2023/04/16 01:39:58;;;;;;;1.50;1.40;;;;;;;5.44;99.49;98935.16;4487036;32;35432;-84
2023/04/16 01:42:27;;;;;;;1.42;1.30;;;;;;;5.55;100.00;98934.31;4487035;32;35003;-83
2023/04/16 01:44:55;;;;;;;1.25;1.12;;;;;;;5.72;100.00;98927.47;4486939;32;33384;-84
2023/04/16 01:47:23;;;;;;;0.60;0.60;;;;;;;5.54;100.00;98930.00;4472999;32;33536;-84
2023/04/16 01:49:51;;;;;;;2.58;2.37;;;;;;;5.43;100.00;98933.41;4486956;32;35035;-84
2023/04/16 01:52:20;;;;;;;1.37;1.30;;;;;;;5.82;99.89;98936.97;4486873;32;34305;-84
2023/04/16 01:54:48;;;;;;;0.90;0.90;;;;;;;5.84;97.17;98932.66;4472811;32;33500;-84
2023/04/16 01:57:16;;;;;;;0.77;0.77;;;;;;;5.57;100.00;98940.34;4486781;32;33856;-84
2023/04/16 01:59:44;;;;;;;3.53;2.05;;;;;;;5.13;100.00;98940.19;4487035;32;35069;-83
2023/04/16 02:02:15;;;;;;;1.05;1.05;;;;;;;5.77;100.00;98943.84;4487108;32;34084;-81
2023/04/16 02:04:44;;;;;;;0.60;0.60;;;;;;;5.70;100.00;98940.38;4486840;32;34381;-84
2023/04/16 02:07:12;;;;;;;0.82;0.82;;;;;;;5.75;100.00;98942.97;4486783;31;34061;-81
2023/04/16 02:09:40;;;;;;;0.60;0.60;;;;;;;5.65;100.00;98938.66;4486732;32;35153;-81
2023/04/16 02:12:10;;;;;;;3.03;2.78;;;;;;;5.91;100.00;98941.28;4486745;32;34346;-84
2023/04/16 02:14:38;;;;;;;0.50;0.50;;;;;;;5.63;100.00;98937.78;4486741;32;34552;-84
2023/04/16 02:17:06;;;;;;;0.73;0.73;;;;;;;5.79;100.00;98939.56;4486796;32;34030;-82
2023/04/16 02:19:35;;;;;;;1.45;1.37;;;;;;;6.06;97.42;98950.81;4486735;32;34931;-80
2023/04/16 02:22:03;;;;;;;1.55;1.48;;;;;;;6.50;94.44;98955.13;4486704;32;35347;-84
2023/04/16 02:24:32;;;;;;;3.50;2.62;;;;;;;6.46;95.22;98956.00;4486134;32;34303;-81
2023/04/16 02:27:02;;;;;;;0.82;0.82;;;;;;;6.07;100.00;98965.44;4472240;32;33112;-84
2023/04/16 02:29:31;;;;;;;1.87;1.77;;;;;;;6.05;100.00;98956.84;4485718;32;35933;-81
2023/04/16 02:31:59;;;;;;;1.40;1.35;;;;;;;6.31;100.00;98953.41;4486180;32;34693;-84
2023/04/16 02:34:28;;;;;;;1.48;1.37;;;;;;;6.05;100.00;98962.88;4485942;32;33088;-84
2023/04/16 02:36:57;;;;;;;0.85;0.85;;;;;;;6.20;100.00;98956.84;4485762;32;33902;-83
2023/04/16 02:39:25;;;;;;;0.90;0.90;;;;;;;6.30;100.00;98956.84;4471789;32;34447;-84
2023/04/16 02:41:53;;;;;;;1.23;1.00;;;;;;;6.13;100.00;98960.31;4485733;32;34567;-84
2023/04/16 02:44:22;;;;;;;1.75;1.65;;;;;;;5.92;100.00;98957.66;4485702;32;33012;-84
2023/04/16 02:46:50;;;;;;;0.60;0.60;;;;;;;5.81;100.00;98955.91;4485911;32;34635;-84
2023/04/16 02:49:17;;;;;;;0.93;0.88;;;;;;;5.64;100.00;98950.69;4471585;32;34978;-84
2023/04/16 02:51:47;;;;;;;1.23;1.15;;;;;;;5.61;100.00;98955.88;4471713;32;34071;-84
2023/04/16 02:54:15;;;;;;;0.60;0.60;;;;;;;5.60;100.00;98959.28;4485681;32;34203;-81
2023/04/16 02:56:43;;;;;;;2.22;2.05;;;;;;;6.24;96.44;98958.56;4485589;31;33918;-83
2023/04/16 02:59:12;;;;;;;2.92;1.30;;;;;;;5.99;95.85;98956.84;4485508;32;35774;-80
2023/04/16 03:01:40;;;;;;;1.67;1.58;;;;;;;5.44;100.00;98957.53;4471787;32;34334;-83
2023/04/16 03:04:08;;;;;;;2.08;1.98;;;;;;;5.64;100.00;98957.59;4471405;32;33675;-83
2023/04/16 03:06:36;;;;;;;2.28;1.62;;;;;;;5.65;100.00;98967.06;4485733;32;34295;-81
2023/04/16 03:09:04;;;;;;;5.93;1.35;;;;;;;5.05;100.00;98964.25;4485402;32;34998;-81
2023/04/16 03:11:32;;;;;;;0.88;0.88;;;;;;;4.93;100.00;98965.88;4485395;32;34463;-82
2023/04/16 03:14:00;;;;;;;3.45;2.30;;;;;;;4.64;100.00;98967.41;4485502;32;33427;-84
2023/04/16 03:16:28;;;;;;;1.12;1.12;;;;;;;4.95;100.00;98963.31;4485492;32;34748;-83
2023/04/16 03:18:56;;;;;;;0.90;0.90;;;;;;;5.18;100.00;98965.16;4485269;32;35824;-84
2023/04/16 03:21:26;;;;;;;0.80;0.80;;;;;;;4.88;100.00;98966.72;4471048;32;34261;-84
2023/04/16 03:23:54;;;;;;;1.77;1.67;;;;;;;4.83;100.00;98963.25;4477753;32;242230;-84
2023/04/16 03:26:22;;;;;;;2.12;2.00;;;;;;;4.72;100.00;98958.00;4486263;32;33989;-84
2023/04/16 03:28:51;;;;;;;1.58;1.48;;;;;;;4.66;100.00;98966.56;4486561;32;35048;-84
2023/04/16 03:31:20;;;;;;;1.42;1.35;;;;;;;4.83;100.00;98976.12;4486258;32;35288;-83
2023/04/16 03:33:48;;;;;;;2.40;2.25;;;;;;;4.11;100.00;98991.88;4486469;32;33325;-83
2023/04/16 03:36:16;;;;;;;0.60;0.60;;;;;;;3.99;100.00;98987.50;4472348;32;33607;-82
2023/04/16 03:38:44;;;;;;;1.58;1.48;;;;;;;4.26;100.00;98997.19;4485223;32;35522;-82
2023/04/16 03:41:13;;;;;;;2.12;1.75;;;;;;;4.03;100.00;98993.53;4486565;31;34406;-81
2023/04/16 03:43:41;;;;;;;0.60;0.60;;;;;;;4.40;100.00;99009.34;4486177;32;33150;-84
2023/04/16 03:46:10;;;;;;;0.60;0.60;;;;;;;4.23;100.00;99007.47;4486092;32;34028;-84
2023/04/16 03:48:38;;;;;;;0.70;0.70;;;;;;;4.34;100.00;99011.03;4486119;32;34901;-83
2023/04/16 03:51:07;;;;;;;1.20;1.20;;;;;;;4.14;100.00;99007.38;4472476;32;34353;-80
2023/04/16 03:53:35;;;;;;;1.27;1.20;;;;;;;4.30;100.00;99014.41;4486150;32;33833;-84
2023/04/16 03:56:03;;;;;;;1.02;1.02;;;;;;;4.45;100.00;99018.84;4486102;32;33823;-84
2023/04/16 03:58:31;;;;;;;1.15;1.12;;;;;;;4.80;100.00;99017.37;4486073;32;35156;-83
2023/04/16 04:00:59;;;;;;;1.75;1.60;;;;;;;4.82;100.00;99028.56;4486070;32;34970;-84
2023/04/16 04:03:27;;;;;;;0.90;0.90;;;;;;;5.03;100.00;99018.41;4486070;32;33440;-83
2023/04/16 04:05:56;;;;;;;0.90;0.85;;;;;;;5.02;100.00;99016.69;4485917;32;34621;-83
2023/04/16 04:08:25;;;;;;;1.33;1.33;;;;;;;4.74;100.00;99023.38;4486327;32;34725;-84
2023/04/16 04:10:53;;;;;;;0.70;0.70;;;;;;;4.98;100.00;99019.22;4459203;32;35182;-83
2023/04/16 04:13:22;;;;;;;0.70;0.70;;;;;;;4.92;100.00;99023.50;4486166;32;33341;-84
2023/04/16 04:15:50;;;;;;;0.65;0.60;;;;;;;4.78;100.00;99016.50;4486243;32;33890;-84
2023/04/16 04:18:19;;;;;;;1.45;1.35;;;;;;;4.82;100.00;99013.09;4486118;32;34627;-84
2023/04/16 04:20:47;;;;;;;0.70;0.70;;;;;;;5.47;100.00;99015.22;4485904;32;34421;-83
2023/04/16 04:23:15;;;;;;;0.60;0.60;;;;;;;5.48;100.00;99021.22;4471923;32;34315;-81
2023/04/16 04:25:44;;;;;;;1.10;1.10;;;;;;;5.12;100.00;99028.78;4485825;32;33843;-84
2023/04/16 04:28:12;;;;;;;4.68;0.90;;;;;;;5.94;100.00;99042.06;4485889;32;34934;-83
2023/04/16 04:30:40;;;;;;;0.93;0.90;;;;;;;6.31;100.00;99041.34;4485878;31;34418;-84
2023/04/16 04:33:09;;;;;;;3.50;1.55;;;;;;;5.79;100.00;99048.06;4472122;32;34200;-83
2023/04/16 04:35:37;;;;;;;1.25;1.20;;;;;;;6.05;100.00;99044.72;4485744;32;33623;-81
2023/04/16 04:38:05;;;;;;;0.62;0.62;;;;;;;5.91;100.00;99052.38;4485738;32;35112;-82
2023/04/16 04:40:34;;;;;;;1.42;1.33;;;;;;;6.08;100.00;99050.75;4485848;32;34352;-84
2023/04/16 04:43:02;;;;;;;0.75;0.75;;;;;;;6.72;100.00;99050.84;4485726;32;34545;-84
2023/04/16 04:45:30;;;;;;;1.75;1.65;;;;;;;7.70;100.00;99045.50;4485912;32;33921;-81
2023/04/16 04:47:59;;;;;;;0.75;0.75;;;;;;;8.70;100.00;99038.88;4471680;32;35462;-84
2023/04/16 04:50:27;;;;;;;0.70;0.70;;;;;;;8.99;94.79;99046.41;4471153;32;33610;-85
2023/04/16 04:52:55;;;;;;;1.23;1.23;;;;;;;8.81;91.86;99039.66;4485537;32;33709;-84
2023/04/16 04:55:23;;;;;;;0.80;0.80;;;;;;;8.43;91.97;99045.12;4485582;32;34661;-84
2023/04/16 04:57:51;;;;;;;0.77;0.77;;;;;;;8.09;94.93;99053.94;4485478;32;35882;-84
2023/04/16 05:00:20;;;;;;;1.10;1.08;;;;;;;7.78;95.05;99048.91;4485738;32;35151;-83
2023/04/16 05:02:49;;;;;;;0.82;0.82;;;;;;;8.13;94.12;99047.87;4485678;32;34243;-83
2023/04/16 05:05:17;;;;;;;0.80;0.77;;;;;;;7.79;95.92;99048.03;4485452;32;33767;-84
2023/04/16 05:07:45;;;;;;;0.85;0.85;;;;;;;7.79;95.65;99050.63;4485349;32;34972;-84
2023/04/16 05:10:13;;;;;;;1.58;1.48;;;;;;;7.51;95.98;99049.88;4485297;32;34371;-84
2023/04/16 05:12:41;;;;;;;0.75;0.60;;;;;;;7.55;97.75;99048.13;4485365;32;33401;-85
2023/04/16 05:15:09;;;;;;;1.98;1.87;;;;;;;7.62;97.72;99043.78;4485222;32;33765;-84
2023/04/16 05:17:38;;;;;;;1.48;1.37;;;;;;;7.55;97.97;99048.13;4485235;32;34974;-83
2023/04/16 05:20:07;;;;;;;0.82;0.82;;;;;;;7.65;98.79;99060.19;4471124;32;35051;-84
2023/04/16 05:22:35;;;;;;;1.45;1.35;;;;;;;7.94;97.40;99057.50;4485297;32;33442;-81
2023/04/16 05:25:04;;;;;;;0.40;0.40;;;;;;;7.85;98.12;99061.84;4470945;32;34595;-84
2023/04/16 05:27:32;;;;;;;1.00;1.00;;;;;;;7.78;99.07;99067.06;4484944;32;35772;-84
2023/04/16 05:30:00;;;;;;;0.80;0.80;;;;;;;7.89;100.00;99063.56;4485134;32;34356;-84
2023/04/16 05:32:28;;;;;;;0.70;0.70;;;;;;;7.86;99.50;99063.56;4484982;32;33629;-84
2023/04/16 05:34:56;;;;;;;0.52;0.52;;;;;;;8.04;99.52;99068.66;4484946;32;33867;-84
2023/04/16 05:37:24;;;;;;;0.70;0.70;;;;;;;8.53;97.20;99073.59;4484879;32;35809;-81
2023/04/16 05:39:53;;;;;;;0.70;0.70;;;;;;;8.67;96.48;99070.06;4484896;32;35140;-82
2023/04/16 05:42:20;;;;;;;0.90;0.90;;;;;;;8.70;97.17;99078.69;4484889;32;34377;-81
2023/04/16 05:44:49;;;;;;;0.73;0.73;;;;;;;8.47;98.73;99073.66;4484778;32;34666;-85
2023/04/16 05:47:18;;;;;;;2.70;2.15;;;;;;;8.66;97.74;99065.72;4484593;32;35100;-84
2023/04/16 05:49:46;;;;;;;1.08;1.05;;;;;;;8.84;97.30;99063.00;4484910;32;34340;-85
2023/04/16 05:52:14;;;;;;;0.75;0.75;;;;;;;8.73;98.48;99065.69;4485078;32;33349;-85
2023/04/16 05:54:42;;;;;;;1.42;1.33;;;;;;;8.77;97.86;99070.84;4484803;32;34759;-84
2023/04/16 05:57:10;;;;;;;2.05;1.95;;;;;;;8.64;98.63;99077.84;4484602;32;35085;-85
2023/04/16 05:59:38;;;;;;;0.73;0.73;;;;;;;8.71;99.32;99076.94;4484499;32;34187;-81
2023/04/16 06:02:06;;;;;;;0.85;0.85;;;;;;;8.76;98.91;99077.78;4486106;32;33575;-83
2023/04/16 06:04:36;;;;;;;1.55;1.48;;;;;;;8.90;99.10;99075.06;4472975;32;33832;-85
2023/04/16 06:07:04;;;;;;;0.62;0.62;;;;;;;8.92;98.68;99081.97;4486889;32;35405;-85
2023/04/16 06:09:32;;;;;;;1.73;1.58;;;;;;;9.36;96.31;99086.78;4486886;32;35010;-81
2023/04/16 06:12:00;;;;;;;1.55;1.45;;;;;;;9.42;96.21;99097.09;4486908;32;33348;-84
2023/04/16 06:14:28;;;;;;;1.02;1.02;;;;;;;9.22;96.99;99087.75;4486901;32;33874;-84
2023/04/16 06:16:56;;;;;;;0.73;0.73;;;;;;;9.32;96.54;99085.06;4486851;32;34725;-83
2023/04/16 06:19:25;;;;;;;1.23;1.15;;;;;;;9.39;96.48;99091.91;4486806;32;34361;-81
2023/04/16 06:21:53;;;;;;;1.17;0.82;;;;;;;9.54;95.62;99091.78;4486861;32;33617;-85
2023/04/16 06:24:21;;;;;;;2.15;1.95;;;;;;;9.79;94.94;99091.50;4486544;32;34309;-85
2023/04/16 06:26:49;;;;;;;1.00;1.00;;;;;;;9.86;93.27;99088.84;4472644;32;34645;-85
2023/04/16 06:29:17;;;;;;;0.88;0.77;;;;;;;10.14;92.65;99087.63;4486653;32;35093;-85
2023/04/16 06:31:45;;;;;;;1.48;1.30;;;;;;;10.01;94.57;99092.97;4486769;32;33768;-85
2023/04/16 06:34:13;;;;;;;0.40;0.40;;;;;;;10.04;92.86;99095.53;4486703;32;34101;-85
2023/04/16 06:36:41;;;;;;;1.90;1.15;;;;;;;10.28;93.95;99096.09;4486770;32;35827;-84
2023/04/16 06:39:09;;;;;;;0.85;0.85;;;;;;;10.47;92.36;99095.88;4472559;32;34318;-84
2023/04/16 06:41:38;;;;;;;1.37;1.23;;;;;;;10.82;91.03;99090.16;4486595;32;33322;-85
2023/04/16 06:44:06;;;;;;;0.80;0.80;;;;;;;10.77;89.71;99090.22;4486971;32;34558;-81
2023/04/16 06:46:34;;;;;;;1.12;1.10;;;;;;;11.17;85.38;99084.34;4486463;32;34819;-85
2023/04/16 06:49:02;;;;;;;0.80;0.80;;;;;;;11.29;85.17;99090.22;4486601;32;35305;-85
2023/04/16 06:51:31;;;;;;;1.08;1.02;;;;;;;11.14;86.61;99093.97;4486554;32;33077;-85
2023/04/16 06:53:59;;;;;;;1.08;1.08;;;;;;;10.87;86.72;99093.53;4486552;32;33920;-84
2023/04/16 06:56:27;;;;;;;3.00;1.20;;;;;;;11.09;88.18;99088.81;4486429;32;35005;-84
2023/04/16 06:58:56;;;;;;;0.80;0.80;;;;;;;11.48;87.29;99083.78;4486468;32;34348;-85
2023/04/16 07:01:24;;;;;;;0.70;0.70;;;;;;;12.41;86.93;99081.97;4486497;32;34389;-85
2023/04/16 07:03:53;;;;;;;1.92;1.83;;;;;;;12.46;82.65;99086.19;4486384;32;34595;-85
2023/04/16 07:06:21;;;;;;;1.15;1.08;;;;;;;12.82;82.17;99082.75;4486420;32;34847;-84
2023/04/16 07:08:49;;;;;;;0.70;0.70;;;;;;;12.56;80.23;99086.81;4459506;32;33903;-84
2023/04/16 07:11:18;;;;;;;0.50;0.50;;;;;;;12.51;82.81;99088.66;4472203;32;33274;-85
2023/04/16 07:13:46;;;;;;;0.85;0.85;;;;;;;12.24;80.77;99090.16;4485293;32;34278;-85
2023/04/16 07:16:14;;;;;;;0.40;0.40;;;;;;;12.28;83.34;99087.44;4472362;32;35016;-85
2023/04/16 07:18:42;;;;;;;1.50;1.40;;;;;;;12.33;79.62;99090.81;4486294;32;34396;-85
2023/04/16 07:21:10;;;;;;;0.70;0.70;;;;;;;12.45;77.36;99088.81;4486318;32;33364;-84
2023/04/16 07:23:38;;;;;;;1.55;1.45;;;;;;;12.53;77.50;99086.91;4472194;32;33802;-84
2023/04/16 07:26:06;;;;;;;0.95;0.95;;;;;;;12.74;79.71;99089.91;4472057;32;35926;-82
2023/04/16 07:28:34;;;;;;;0.75;0.75;;;;;;;13.11;77.95;99089.00;4486170;32;34778;-82
2023/04/16 07:31:02;;;;;;;0.80;0.80;;;;;;;14.33;71.64;99094.41;4486295;32;34129;-84
2023/04/16 07:33:30;;;;;;;0.75;0.75;;;;;;;14.98;70.13;99095.88;4486255;32;34172;-82
2023/04/16 07:35:58;;;;;;;0.50;0.50;;;;;;;14.16;71.62;99093.16;4486072;32;35138;-83
2023/04/16 07:38:26;;;;;;;1.08;1.05;;;;;;;14.83;71.26;99096.41;4472071;32;34136;-86
2023/04/16 07:40:55;;;;;;;0.68;0.68;;;;;;;14.25;69.01;99101.66;4486304;32;33533;-86
2023/04/16 07:43:23;;;;;;;0.50;0.50;;;;;;;15.04;70.23;99097.47;4486165;32;33999;-86
2023/04/16 07:45:51;;;;;;;0.70;0.70;;;;;;;15.03;68.95;99093.13;4472133;32;34557;-86
2023/04/16 07:48:20;;;;;;;1.10;1.00;;;;;;;15.42;65.08;99093.53;4486091;32;34825;-85
2023/04/16 07:50:49;;;;;;;0.57;0.57;;;;;;;14.60;65.54;99098.00;4486131;32;34271;-85
2023/04/16 07:53:17;;;;;;;0.98;0.98;;;;;;;14.50;70.00;99102.59;4472103;32;33829;-85
2023/04/16 07:55:45;;;;;;;0.98;0.98;;;;;;;14.38;67.82;99102.97;4486093;32;35021;-83
2023/04/16 07:58:13;;;;;;;0.30;0.30;;;;;;;14.88;65.72;99105.00;4486141;32;34188;-85
2023/04/16 08:00:41;;;;;;;1.12;1.02;;;;;;;14.85;66.38;99102.47;4486027;32;34406;-84
2023/04/16 08:03:09;;;;;;;0.62;0.62;;;;;;;14.51;65.65;99095.63;4485969;32;33932;-84
2023/04/16 08:05:37;;;;;;;1.23;0.95;;;;;;;14.59;66.75;99107.63;4471819;32;33887;-86
2023/04/16 08:08:05;;;;;;;0.80;0.80;;;;;;;14.09;68.29;99109.94;4485920;32;34597;-81
2023/04/16 08:10:34;;;;;;;1.45;1.17;;;;;;;14.34;69.33;99111.84;4472101;32;33182;-85
2023/04/16 08:13:02;;;;;;;5.37;1.90;;;;;;;15.33;67.05;99104.34;4486004;32;33520;-82
2023/04/16 08:15:30;;;;;;;0.30;0.30;;;;;;;15.70;64.87;99113.59;4471929;32;34916;-86
2023/04/16 08:17:58;;;;;;;0.62;0.62;;;;;;;15.52;64.24;99117.72;4471878;32;34343;-84
2023/04/16 08:20:26;;;;;;;0.35;0.35;;;;;;;14.87;64.48;99119.84;4486002;32;33560;-87
2023/04/16 08:22:54;;;;;;;0.60;0.60;;;;;;;13.83;67.91;99113.28;4485936;32;33958;-86
2023/04/16 08:25:23;;;;;;;0.50;0.50;;;;;;;14.79;66.77;99112.22;4485055;32;35819;-86
2023/04/16 08:27:51;;;;;;;2.87;0.70;;;;;;;15.58;62.06;99117.47;4485766;32;34549;-86
2023/04/16 08:30:20;;;;;;;0.65;0.65;;;;;;;15.81;63.46;99110.59;4471651;32;33189;-84
2023/04/16 08:32:49;;;;;;;0.82;0.82;;;;;;;15.02;66.55;99115.00;4471621;32;33166;-84
2023/04/16 08:35:17;;;;;;;0.32;0.32;;;;;;;14.53;66.63;99126.09;4485800;32;34909;-85
2023/04/16 08:37:45;;;;;;;0.75;0.75;;;;;;;14.72;65.60;99125.59;4485782;32;34428;-81
2023/04/16 08:40:13;;;;;;;0.30;0.30;;;;;;;14.98;63.78;99125.63;4471457;32;33630;-85
2023/04/16 08:42:48;;;;;;;0.35;0.35;;;;;;;14.55;68.44;99126.91;4485635;32;33814;-84
2023/04/16 08:45:17;;;;;;;0.93;0.93;;;;;;;15.04;63.11;99121.94;4485768;32;35057;-83
2023/04/16 08:47:46;;;;;;;1.27;1.20;;;;;;;14.53;65.98;99120.84;4485512;32;34286;-85
2023/04/16 08:50:16;;;;;;;1.08;0.93;;;;;;;14.45;65.57;99130.69;4485952;32;34456;-83
2023/04/16 08:52:51;;;;;;;1.15;1.05;;;;;;;14.84;62.87;99127.81;4471683;32;34668;-85
2023/04/16 08:55:31;;;;;;;0.30;0.30;;;;;;;14.48;67.10;99130.63;4485695;32;35102;-85
2023/04/16 08:58:00;;;;;;;0.68;0.68;;;;;;;14.46;65.45;99136.81;4458723;32;33171;-83
2023/04/16 09:00:30;;;;;;;0.20;0.20;;;;;;;15.13;64.65;99133.88;4471534;32;33349;-84
2023/04/16 09:02:59;;;;;;;0.43;0.43;;;;;;;15.01;64.25;99134.28;4485487;32;33913;-83
2023/04/16 09:05:28;;;;;;;0.50;0.50;;;;;;;15.04;65.73;99136.81;4471538;32;35716;-84
2023/04/16 09:07:56;;;;;;;0.98;0.93;;;;;;;15.33;65.31;99141.94;4485197;32;34292;-85
2023/04/16 09:10:25;;;;;;;0.30;0.30;;;;;;;16.56;62.86;99141.97;4485475;32;33400;-85
2023/04/16 09:12:55;;;;;;;0.75;0.75;;;;;;;16.38;60.12;99146.16;4471297;32;34086;-85
2023/04/16 09:15:24;;;;;;;1.02;0.98;;;;;;;16.05;61.95;99146.47;4485318;32;35968;-83
2023/04/16 09:17:53;;;;;;;0.50;0.50;;;;;;;16.55;59.63;99150.75;4471323;32;34132;-84
2023/04/16 09:20:21;;;;;;;1.05;1.05;;;;;;;16.16;60.66;99147.87;4471173;32;33349;-85
2023/04/16 09:22:49;;;;;;;1.15;1.05;;;;;;;15.78;62.89;99153.59;4485182;32;33781;-85
2023/04/16 09:25:19;;;;;;;0.30;0.30;;;;;;;16.52;60.40;99157.91;4484908;32;35017;-84
2023/04/16 09:27:51;;;;;;;0.55;0.55;;;;;;;16.52;61.43;99152.66;4471046;32;34422;-85
2023/04/16 09:30:23;;;;;;;0.30;0.30;;;;;;;16.70;61.67;99153.75;4485182;32;34141;-85
2023/04/16 09:32:52;;;;;;;0.35;0.35;;;;;;;15.67;56.09;99156.56;4485202;32;34646;-85
2023/04/16 09:35:20;;;;;;;0.57;0.57;;;;;;;15.12;57.62;99161.88;4470901;32;35125;-84
2023/04/16 09:37:56;;;;;;;0.50;0.50;;;;;;;16.00;57.41;99158.91;4473151;32;34823;-84
2023/04/16 09:40:26;;;;;;;0.28;0.28;;;;;;;16.59;52.38;99156.75;4473128;32;33564;-84
2023/04/16 09:42:59;;;;;;;0.32;0.32;;;;;;;16.51;54.42;99154.44;4473001;32;33834;-84
2023/04/16 09:45:31;;;;;;;1.35;1.25;;;;;;;16.82;51.33;99163.78;4487261;32;36009;-83
2023/04/16 09:48:04;;;;;;;0.30;0.30;;;;;;;18.07;46.83;99156.88;4487020;32;34614;-84
2023/04/16 09:50:33;;;;;;;0.20;0.20;;;;;;;18.36;46.33;99160.81;4473274;32;34312;-84
2023/04/16 09:53:02;;;;;;;1.80;1.42;;;;;;;17.66;49.22;99159.47;4487013;32;34607;-84
2023/04/16 09:55:31;;;;;;;0.47;0.47;;;;;;;17.72;48.00;99161.03;4486843;32;34905;-83
2023/04/16 09:58:00;;;;;;;0.52;0.52;;;;;;;17.17;48.23;99153.63;4486972;32;34581;-82
2023/04/16 10:00:30;;;;;;;0.30;0.30;;;;;;;16.95;51.35;99156.28;4486973;32;33444;-82
2023/04/16 10:03:05;;;;;;;0.70;0.70;;;;;;;17.02;52.92;99160.38;4486912;32;33112;-83
2023/04/16 10:05:34;;;;;;;1.00;1.00;;;;;;;17.86;48.52;99153.41;4487118;32;35034;-83
2023/04/16 10:08:10;;;;;;;0.37;0.37;;;;;;;18.40;46.69;99155.41;4486787;32;34533;-82
2023/04/16 10:10:39;;;;;;;0.57;0.57;;;;;;;17.59;50.02;99156.28;4472866;32;34149;-82
2023/04/16 10:13:07;;;;;;;0.60;0.60;;;;;;;17.11;53.24;99148.63;4486770;32;34034;-83
2023/04/16 10:15:35;;;;;;;0.30;0.30;;;;;;;17.70;49.15;99149.66;4486855;32;35149;-81
2023/04/16 10:18:04;;;;;;;0.45;0.45;;;;;;;17.97;48.37;99145.88;4486780;32;35356;-83
2023/04/16 10:20:32;;;;;;;0.80;0.80;;;;;;;16.72;53.86;99151.91;4472748;32;34189;-83
2023/04/16 10:23:01;;;;;;;0.50;0.50;;;;;;;16.37;55.82;99146.22;4486829;32;33925;-83
2023/04/16 10:25:30;;;;;;;1.90;0.93;;;;;;;15.63;55.40;99146.22;4486425;32;35852;-83
2023/04/16 10:27:59;;;;;;;1.20;1.10;;;;;;;16.86;54.04;99137.31;4472658;32;34458;-83
2023/04/16 10:30:27;;;;;;;1.15;1.15;;;;;;;16.07;57.29;99144.66;4472731;32;34387;-83
2023/04/16 10:32:56;;;;;;;0.70;0.70;;;;;;;15.97;56.46;99140.66;4472665;32;33917;-83
2023/04/16 10:35:27;;;;;;;0.47;0.47;;;;;;;15.63;55.88;99139.19;4472941;32;34989;-83
2023/04/16 10:37:56;;;;;;;0.50;0.50;;;;;;;16.03;54.79;99143.06;4472582;32;35241;-84
2023/04/16 10:40:26;;;;;;;0.75;0.75;;;;;;;16.11;54.66;99146.28;4486666;32;34278;-83
2023/04/16 10:42:58;;;;;;;0.40;0.40;;;;;;;17.24;50.80;99134.91;4486690;32;34641;-83
2023/04/16 10:45:31;;;;;;;0.30;0.30;;;;;;;17.73;48.70;99131.13;4472621;32;35056;-82
2023/04/16 10:48:04;;;;;;;0.40;0.40;;;;;;;17.18;49.27;99129.03;4472607;32;34531;-83
2023/04/16 10:50:34;;;;;;;0.50;0.50;;;;;;;17.35;50.30;99125.72;4486590;32;33321;-83
2023/04/16 10:53:22;;;;;;;0.28;0.28;;;;;;;17.42;49.60;99121.91;4486680;32;33094;-82
2023/04/16 10:55:57;;;;;;;0.80;0.80;;;;;;;17.60;53.28;99125.53;4472482;32;35057;-83
2023/04/16 10:58:26;;;;;;;0.43;0.43;;;;;;;17.55;54.15;99116.97;4472572;32;35058;-84
2023/04/16 11:00:54;;;;;;;1.00;1.00;;;;;;;17.79;52.12;99117.69;4472502;32;33593;-83
2023/04/16 11:03:22;;;;;;;0.40;0.40;;;;;;;18.25;53.45;99123.56;4472494;32;33783;-83
2023/04/16 11:05:51;;;;;;;0.43;0.43;;;;;;;19.11;50.53;99118.63;4486382;32;35937;-83
2023/04/16 11:08:19;;;;;;;0.32;0.32;;;;;;;18.79;49.44;99114.91;4486376;32;35256;-83
2023/04/16 11:10:48;;;;;;;0.55;0.55;;;;;;;19.29;47.86;99116.91;4472526;32;33420;-84
2023/04/16 11:13:17;;;;;;;0.73;0.73;;;;;;;19.00;50.53;99120.97;4472440;32;33877;-83
2023/04/16 11:15:47;;;;;;;0.62;0.55;;;;;;;19.35;44.42;99110.44;4486404;32;35762;-84
2023/04/16 11:18:18;;;;;;;0.35;0.35;;;;;;;18.29;47.14;99114.56;4459503;32;33927;-84
2023/04/16 11:20:47;;;;;;;0.55;0.55;;;;;;;18.72;48.95;99117.84;4472448;32;33768;-83
2023/04/16 11:23:15;;;;;;;0.40;0.40;;;;;;;18.16;48.23;99116.09;4486350;32;33896;-85
2023/04/16 11:25:43;;;;;;;0.40;0.40;;;;;;;18.69;44.97;99118.00;4486109;32;35018;-83
2023/04/16 11:28:12;;;;;;;0.37;0.37;;;;;;;18.57;45.90;99114.16;4486131;32;34470;-82
2023/04/16 11:30:40;;;;;;;2.87;0.93;;;;;;;18.30;47.09;99116.31;4486361;32;34187;-84
2023/04/16 11:33:10;;;;;;;0.40;0.40;;;;;;;19.97;40.74;99118.72;4472373;32;33919;-83
2023/04/16 11:35:38;;;;;;;0.40;0.40;;;;;;;19.94;41.23;99113.59;4486413;32;34395;-84
2023/04/16 11:38:06;;;;;;;0.30;0.30;;;;;;;20.37;40.19;99117.44;4486498;32;34493;-84
2023/04/16 11:40:35;;;;;;;0.40;0.40;;;;;;;20.59;39.02;99106.50;4486188;32;34344;-82